createdAt,value
2023-07-15T00:00:34.189Z,59
2023-07-15T00:15:33.710Z,60
2023-07-15T00:30:33.453Z,60
2023-07-15T00:45:33.462Z,60
2023-07-15T01:00:33.717Z,61
2023-07-15T01:15:34.013Z,61
2023-07-15T01:30:33.994Z,61
2023-07-15T01:45:33.226Z,62
2023-07-15T02:00:33.814Z,62
2023-07-15T02:15:33.928Z,62
2023-07-15T02:30:33.769Z,62
2023-07-15T02:45:33.543Z,63
2023-07-15T03:00:33.555Z,63
2023-07-15T03:15:33.820Z,63
2023-07-15T03:30:33.391Z,63
2023-07-15T03:45:33.402Z,64
2023-07-15T04:00:33.396Z,64
2023-07-15T04:15:33.928Z,64
2023-07-15T04:30:33.391Z,64
2023-07-15T04:45:33.370Z,64
2023-07-15T05:00:33.704Z,64
2023-07-15T05:15:33.216Z,65
2023-07-15T05:30:33.799Z,65
2023-07-15T05:45:33.919Z,65
2023-07-15T06:00:33.880Z,65
2023-07-15T06:15:33.789Z,65
2023-07-15T06:30:33.521Z,65
2023-07-15T06:45:33.530Z,65
2023-07-15T07:00:33.830Z,64
2023-07-15T07:15:33.366Z,64
2023-07-15T07:30:33.881Z,64
2023-07-15T07:45:34.165Z,64
2023-07-15T08:00:33.527Z,64
2023-07-15T08:15:33.748Z,63
2023-07-15T08:30:33.430Z,62
2023-07-15T08:45:33.714Z,62
2023-07-15T09:00:34.207Z,62
2023-07-15T09:15:33.641Z,61
2023-07-15T09:30:33.475Z,61
2023-07-15T09:45:33.480Z,60
2023-07-15T10:00:33.479Z,60
2023-07-15T10:15:33.844Z,60
2023-07-15T10:30:33.937Z,60
2023-07-15T10:45:33.537Z,60
2023-07-15T11:00:33.754Z,60
2023-07-15T11:15:33.186Z,59
2023-07-15T11:30:33.660Z,59
2023-07-15T11:45:34.035Z,59
2023-07-15T12:00:47.068Z,59
2023-07-15T12:15:34.056Z,59
2023-07-15T12:30:34.132Z,58
2023-07-15T12:45:33.154Z,58
2023-07-15T13:00:33.844Z,58
2023-07-15T13:15:33.752Z,58
2023-07-15T13:30:34.199Z,58
2023-07-15T13:45:33.276Z,58
2023-07-15T14:00:34.015Z,57
2023-07-15T14:15:33.236Z,57
2023-07-15T14:30:33.397Z,57
2023-07-15T14:45:33.110Z,57
2023-07-15T15:00:34.122Z,57
2023-07-15T15:15:33.441Z,57
2023-07-15T15:30:33.876Z,57
2023-07-15T15:45:33.568Z,56
2023-07-15T16:00:34.078Z,56
2023-07-15T16:15:34.334Z,56
2023-07-15T16:30:34.051Z,56
2023-07-15T16:45:33.621Z,56
2023-07-15T17:00:34.050Z,56
2023-07-15T17:15:33.568Z,56
2023-07-15T17:30:34.106Z,56
2023-07-15T17:45:33.395Z,56
2023-07-15T18:00:33.951Z,56
2023-07-15T18:15:33.607Z,56
2023-07-15T18:30:33.375Z,57
2023-07-15T18:45:33.498Z,57
2023-07-15T19:00:33.456Z,57
2023-07-15T19:15:33.720Z,58
2023-07-15T19:30:34.203Z,58
2023-07-15T19:45:34.002Z,58
2023-07-15T20:00:33.845Z,59
2023-07-15T20:15:33.974Z,59
2023-07-15T20:30:34.021Z,60
2023-07-15T20:45:33.864Z,61
2023-07-15T21:00:33.917Z,61
2023-07-15T21:15:33.548Z,61
2023-07-15T21:30:33.851Z,61
2023-07-15T21:45:34.064Z,61
2023-07-15T22:00:34.133Z,61
2023-07-15T22:15:33.128Z,61
2023-07-15T22:30:33.884Z,61
2023-07-15T22:45:37.807Z,61
2023-07-15T23:00:33.548Z,61
2023-07-15T23:15:33.694Z,61
2023-07-15T23:30:34.109Z,61
2023-07-15T23:45:33.592Z,61
